Time;durP1;ratioP1;P1;durP2;ratioP2;P2;SDS_P1;SDS_P2;PMS_P1;PMS_P2;Temp;Humidity;BMP_temperature;BMP_pressure;BME280_temperature;BME280_humidity;BME280_pressure;Samples;Min_cycle;Max_cycle;Signal;HPM_P1;HPM_P2
2022/11/06 00:02:21;;;;;;;23.40;7.85;;;8.40;99.90;;;;;;4941716;29;20082;-67
2022/11/06 00:04:47;;;;;;;19.23;9.18;;;8.50;99.90;;;;;;4940115;29;20027;-68
2022/11/06 00:07:12;;;;;;;18.27;7.63;;;8.60;99.90;;;;;;4956723;28;20062;-67
2022/11/06 00:09:38;;;;;;;26.48;7.38;;;8.70;99.90;;;;;;4956217;28;20027;-67
2022/11/06 00:12:04;;;;;;;18.45;7.65;;;8.70;99.90;;;;;;4939268;29;20026;-68
2022/11/06 00:14:29;;;;;;;14.57;7.55;;;8.70;99.90;;;;;;4957859;28;20015;-67
2022/11/06 00:16:55;;;;;;;19.70;8.32;;;8.80;99.90;;;;;;4958177;28;20102;-67
2022/11/06 00:19:20;;;;;;;22.88;8.32;;;8.60;99.90;;;;;;4958170;28;20498;-68
2022/11/06 00:21:46;;;;;;;20.55;7.72;;;8.40;99.90;;;;;;4958645;28;20438;-68
2022/11/06 00:24:13;;;;;;;21.08;7.72;;;8.30;99.90;;;;;;4957933;28;20546;-67
2022/11/06 00:26:39;;;;;;;18.30;8.25;;;8.40;99.90;;;;;;4958390;28;20023;-68
2022/11/06 00:29:05;;;;;;;17.38;7.05;;;8.50;99.90;;;;;;4957961;28;20026;-68
2022/11/06 00:31:34;;;;;;;15.32;6.47;;;8.60;99.90;;;;;;4975529;28;20018;-68
2022/11/06 00:34:00;;;;;;;19.08;6.63;;;8.60;99.90;;;;;;4956319;28;20109;-67
2022/11/06 00:36:46;;;;;;;13.15;6.93;;;8.60;99.90;;;;;;4954333;28;20506;-68
2022/11/06 00:39:11;;;;;;;12.60;6.75;;;8.60;99.90;;;;;;4934862;29;20080;-68
2022/11/06 00:41:37;;;;;;;17.15;6.82;;;8.60;99.90;;;;;;4918807;29;20035;-68
2022/11/06 00:44:03;;;;;;;19.95;7.45;;;8.80;99.90;;;;;;4934901;29;20040;-68
2022/11/06 00:46:29;;;;;;;16.95;6.72;;;8.90;99.90;;;;;;4919651;29;20136;-68
2022/11/06 00:49:17;;;;;;;17.23;6.55;;;8.80;99.90;;;;;;4918646;29;20127;-68
2022/11/06 00:51:43;;;;;;;16.00;6.93;;;8.70;99.90;;;;;;4919339;29;20030;-68
2022/11/06 00:54:12;;;;;;;15.93;6.70;;;8.80;99.90;;;;;;4918643;29;20035;-68
2022/11/06 00:56:38;;;;;;;21.60;6.82;;;8.80;99.90;;;;;;4918619;29;20027;-68
2022/11/06 00:59:07;;;;;;;11.85;6.03;;;8.70;99.90;;;;;;4934580;29;20036;-68
2022/11/06 01:01:39;;;;;;;14.48;6.03;;;8.80;99.90;;;;;;4934439;29;20031;-68
2022/11/06 01:04:09;;;;;;;13.15;5.93;;;8.80;99.90;;;;;;4918488;29;20046;-68
2022/11/06 01:06:40;;;;;;;11.75;6.00;;;8.60;99.90;;;;;;4918513;29;20031;-68
2022/11/06 01:09:07;;;;;;;12.48;5.93;;;8.50;99.90;;;;;;4919456;29;20059;-68
2022/11/06 01:11:35;;;;;;;15.00;6.72;;;8.50;99.90;;;;;;4971005;28;20030;-67
2022/11/06 01:14:03;;;;;;;15.10;6.15;;;8.40;99.90;;;;;;4956929;28;20033;-68
2022/11/06 01:16:29;;;;;;;14.60;6.20;;;8.60;99.90;;;;;;4974725;28;20101;-68
2022/11/06 01:18:56;;;;;;;13.60;6.05;;;8.50;99.90;;;;;;4974658;28;20031;-68
2022/11/06 01:21:23;;;;;;;14.63;8.20;;;8.60;99.90;;;;;;4957587;28;20054;-68
2022/11/06 01:23:54;;;;;;;24.10;7.82;;;8.60;99.90;;;;;;4974675;28;20019;-67
2022/11/06 01:26:20;;;;;;;12.48;6.60;;;8.50;99.90;;;;;;4957659;28;20030;-68
2022/11/06 01:28:46;;;;;;;16.13;6.90;;;8.20;99.90;;;;;;4957097;28;20031;-68
2022/11/06 01:31:14;;;;;;;21.02;7.95;;;8.30;99.90;;;;;;4957222;28;20023;-68
2022/11/06 01:33:40;;;;;;;18.00;6.93;;;8.30;99.90;;;;;;4957156;28;20023;-68
2022/11/06 01:36:10;;;;;;;17.75;7.53;;;8.20;99.90;;;;;;4974465;28;20049;-68
2022/11/06 01:38:40;;;;;;;16.52;6.82;;;8.30;99.90;;;;;;4974204;28;20027;-68
2022/11/06 01:41:05;;;;;;;20.65;8.68;;;8.30;99.90;;;;;;4957069;28;20053;-68
2022/11/06 01:43:49;;;;;;;18.52;7.22;;;8.30;99.90;;;;;;4954107;29;20475;-68
2022/11/06 01:46:17;;;;;;;21.98;7.93;;;8.20;99.90;;;;;;4951608;28;20027;-68
2022/11/06 01:48:55;;;;;;;17.77;7.68;;;8.30;99.90;;;;;;4961419;28;20035;-69
2022/11/06 01:51:23;;;;;;;15.57;7.88;;;8.10;99.90;;;;;;4957736;28;20035;-69
2022/11/06 01:53:50;;;;;;;16.67;7.68;;;8.20;99.90;;;;;;4941887;29;20114;-69
2022/11/06 01:56:16;;;;;;;21.10;9.05;;;8.30;99.90;;;;;;4942702;28;20054;-69
2022/11/06 01:58:45;;;;;;;19.67;9.05;;;8.30;99.90;;;;;;4956740;28;20027;-69
2022/11/06 02:01:11;;;;;;;17.20;8.10;;;8.10;99.90;;;;;;4948106;28;20039;-69
2022/11/06 02:03:39;;;;;;;18.25;7.57;;;8.20;99.90;;;;;;4946730;29;20034;-69
2022/11/06 02:06:06;;;;;;;23.02;9.38;;;8.20;99.90;;;;;;4957407;28;20034;-69
2022/11/06 02:08:33;;;;;;;21.83;7.38;;;8.30;99.90;;;;;;4956916;28;20110;-69
2022/11/06 02:10:59;;;;;;;18.88;8.80;;;8.40;99.90;;;;;;4961019;28;20027;-69
2022/11/06 02:14:06;;;;;;;19.13;7.95;;;8.40;99.90;;;;;;4960638;28;20034;-69
2022/11/06 02:16:50;;;;;;;18.80;9.10;;;8.50;99.90;;;;;;4948696;28;20058;-69
2022/11/06 02:19:50;;;;;;;16.80;8.00;;;8.40;99.90;;;;;;4941605;28;20093;-69
2022/11/06 02:22:54;;;;;;;20.52;9.75;;;8.50;99.90;;;;;;4941530;29;20034;-69
2022/11/06 02:25:56;;;;;;;20.67;9.73;;;8.30;99.90;;;;;;4970086;28;20545;-69
2022/11/06 02:28:38;;;;;;;25.17;9.45;;;8.20;99.90;;;;;;4975413;28;20023;-69
2022/11/06 02:31:12;;;;;;;24.75;9.60;;;8.00;99.90;;;;;;4950431;28;20110;-69
2022/11/06 02:33:43;;;;;;;27.27;10.27;;;8.10;99.90;;;;;;4977350;28;20034;-69
2022/11/06 02:36:13;;;;;;;22.85;9.90;;;8.10;99.90;;;;;;4942019;29;20027;-69
2022/11/06 02:38:42;;;;;;;18.48;9.88;;;8.10;99.90;;;;;;4954642;28;20027;-69
2022/11/06 02:41:13;;;;;;;21.63;10.38;;;8.20;99.90;;;;;;4959636;28;20109;-69
2022/11/06 02:43:44;;;;;;;20.52;9.32;;;8.20;99.90;;;;;;4977031;28;20487;-69
2022/11/06 02:46:38;;;;;;;21.63;9.93;;;8.10;99.90;;;;;;4946470;29;20035;-69
2022/11/06 02:49:16;;;;;;;23.30;10.15;;;8.10;99.90;;;;;;4955338;28;20106;-68
2022/11/06 02:51:47;;;;;;;19.60;9.65;;;8.00;99.90;;;;;;4944522;28;20023;-69
2022/11/06 02:54:14;;;;;;;17.42;10.45;;;8.10;99.90;;;;;;4952300;29;20033;-69
2022/11/06 02:56:43;;;;;;;26.42;9.82;;;7.90;99.90;;;;;;4954601;28;20066;-69
2022/11/06 02:59:13;;;;;;;24.98;10.98;;;8.00;99.90;;;;;;4959787;28;20027;-69
2022/11/06 03:01:43;;;;;;;32.45;10.65;;;7.80;99.90;;;;;;4959073;28;20027;-69
2022/11/06 03:04:32;;;;;;;21.38;10.40;;;7.90;99.90;;;;;;4975239;28;20062;-69
2022/11/06 03:07:21;;;;;;;22.77;10.27;;;8.00;99.90;;;;;;4940532;29;20031;-69
2022/11/06 03:09:48;;;;;;;23.88;9.88;;;8.00;99.90;;;;;;4974892;28;20055;-69
2022/11/06 03:12:24;;;;;;;20.75;9.52;;;8.10;99.90;;;;;;4959288;28;20058;-69
2022/11/06 03:14:49;;;;;;;24.92;11.07;;;8.10;99.90;;;;;;4959383;28;20033;-69
2022/11/06 03:17:25;;;;;;;22.92;9.93;;;8.10;99.90;;;;;;4945411;28;20023;-68
2022/11/06 03:19:58;;;;;;;22.52;10.02;;;8.10;99.90;;;;;;4941899;29;20170;-69
2022/11/06 03:22:33;;;;;;;20.60;9.98;;;8.00;99.90;;;;;;4940066;29;20126;-69
2022/11/06 03:25:08;;;;;;;22.98;10.80;;;7.90;99.90;;;;;;4965086;28;20027;-69
2022/11/06 03:27:37;;;;;;;21.77;9.93;;;8.00;99.90;;;;;;4963929;28;20090;-69
2022/11/06 03:30:02;;;;;;;24.40;10.68;;;8.00;99.90;;;;;;4943910;28;20023;-69
2022/11/06 03:32:40;;;;;;;25.88;9.90;;;8.00;99.90;;;;;;4959517;28;20022;-69
2022/11/06 03:35:14;;;;;;;22.45;10.38;;;8.00;99.90;;;;;;4958794;28;20018;-69
2022/11/06 03:37:46;;;;;;;22.98;10.63;;;7.90;99.90;;;;;;4945932;28;20027;-69
2022/11/06 03:40:16;;;;;;;22.35;10.30;;;8.00;99.90;;;;;;4963115;28;20027;-69
2022/11/06 03:42:43;;;;;;;26.60;10.30;;;8.00;99.90;;;;;;4939609;29;20099;-69
2022/11/06 03:45:14;;;;;;;25.35;10.20;;;7.90;99.90;;;;;;4945973;28;20094;-69
2022/11/06 03:47:45;;;;;;;21.73;10.25;;;8.10;99.90;;;;;;4976154;28;20141;-69
2022/11/06 03:50:52;;;;;;;28.70;11.32;;;8.00;99.90;;;;;;4958657;28;20104;-69
2022/11/06 03:53:25;;;;;;;21.55;9.93;;;8.00;99.90;;;;;;4878860;29;20040;-69
2022/11/06 03:55:58;;;;;;;32.83;11.70;;;7.80;99.90;;;;;;4951799;28;20062;-69
2022/11/06 03:58:36;;;;;;;24.17;11.10;;;7.80;99.90;;;;;;4958828;28;20023;-69
2022/11/06 04:01:06;;;;;;;25.38;11.20;;;7.90;99.90;;;;;;4953545;29;20027;-69
2022/11/06 04:03:58;;;;;;;20.95;10.68;;;7.90;99.90;;;;;;4958932;28;20091;-69
2022/11/06 04:06:56;;;;;;;24.23;11.15;;;8.00;99.90;;;;;;4959993;28;20058;-69
2022/11/06 04:14:58;;;;;;;25.92;10.85;;;8.00;99.90;;;;;;4967302;28;20110;-69
2022/11/06 04:17:28;;;;;;;22.00;10.70;;;8.00;99.90;;;;;;4942258;28;20070;-69
2022/11/06 04:19:58;;;;;;;21.65;10.93;;;7.80;99.90;;;;;;4959403;28;20039;-69
2022/11/06 04:22:44;;;;;;;25.20;11.38;;;7.90;99.90;;;;;;4969971;28;20094;-69
2022/11/06 04:28:37;;;;;;;19.58;9.45;;;7.70;99.90;;;;;;4974563;28;20186;-69
2022/11/06 04:31:10;;;;;;;19.95;10.13;;;7.80;99.90;;;;;;4975563;28;20086;-69
2022/11/06 04:33:49;;;;;;;21.00;9.18;;;7.60;99.90;;;;;;4956947;28;20034;-69
2022/11/06 04:36:20;;;;;;;22.52;9.43;;;7.50;99.90;;;;;;4951427;29;20023;-69
2022/11/06 04:39:04;;;;;;;21.92;9.70;;;7.50;99.90;;;;;;4972425;28;20019;-69
2022/11/06 04:42:08;;;;;;;20.85;10.38;;;7.60;99.90;;;;;;4938822;29;20034;-69
2022/11/06 04:44:42;;;;;;;24.40;9.10;;;7.80;99.90;;;;;;4891211;28;20050;-69
2022/11/06 04:47:17;;;;;;;22.90;10.00;;;7.70;99.90;;;;;;4966372;28;20106;-69
2022/11/06 04:49:44;;;;;;;23.33;9.75;;;7.50;99.90;;;;;;4941243;28;20027;-69
2022/11/06 04:52:13;;;;;;;26.17;9.88;;;7.50;99.90;;;;;;4957273;28;20023;-69
2022/11/06 04:54:40;;;;;;;24.10;9.30;;;7.60;99.90;;;;;;4975012;28;21212;-69
2022/11/06 04:57:06;;;;;;;23.27;9.30;;;7.60;99.90;;;;;;4957661;28;20038;-69
2022/11/06 04:59:35;;;;;;;21.92;9.80;;;7.70;99.90;;;;;;4949697;28;20023;-69
2022/11/06 05:02:01;;;;;;;19.55;10.30;;;7.70;99.90;;;;;;4974659;28;20082;-69
2022/11/06 05:04:26;;;;;;;25.38;10.23;;;7.80;99.90;;;;;;4974518;28;20054;-69
2022/11/06 05:06:52;;;;;;;24.85;10.27;;;7.80;99.90;;;;;;4971168;28;20027;-69
2022/11/06 05:09:17;;;;;;;23.63;11.23;;;7.80;99.90;;;;;;4942385;28;20026;-69
2022/11/06 05:11:43;;;;;;;24.30;11.13;;;7.70;99.90;;;;;;4974557;28;20022;-69
2022/11/06 05:14:08;;;;;;;24.35;10.70;;;7.70;99.90;;;;;;4957623;28;20027;-69
2022/11/06 05:16:34;;;;;;;31.08;11.65;;;7.70;99.90;;;;;;4949591;29;20387;-69
2022/11/06 05:18:59;;;;;;;24.77;10.98;;;7.60;99.90;;;;;;4973281;28;20517;-69
2022/11/06 05:24:09;;;;;;;27.42;11.95;;;7.70;99.90;;;;;;4963000;28;20026;-68
2022/11/06 05:26:35;;;;;;;29.38;12.00;;;7.60;99.90;;;;;;4947698;28;20024;-68
2022/11/06 05:29:00;;;;;;;32.20;12.60;;;7.50;99.90;;;;;;4954207;28;20033;-68
2022/11/06 05:31:26;;;;;;;27.55;11.25;;;7.60;99.90;;;;;;4974495;28;20033;-68
2022/11/06 05:33:52;;;;;;;28.75;13.57;;;7.60;99.90;;;;;;4974248;28;20026;-69
2022/11/06 05:36:18;;;;;;;26.30;12.55;;;7.50;99.90;;;;;;4941362;28;20047;-69
2022/11/06 05:38:44;;;;;;;30.38;13.50;;;7.60;99.90;;;;;;4966497;28;20024;-69
2022/11/06 05:41:09;;;;;;;32.97;13.95;;;7.20;99.90;;;;;;4964947;28;20030;-69
2022/11/06 05:43:35;;;;;;;30.92;13.95;;;7.30;99.90;;;;;;4957939;28;20118;-69
2022/11/06 05:46:01;;;;;;;32.78;14.85;;;7.20;99.90;;;;;;4956713;28;20031;-68
2022/11/06 05:48:28;;;;;;;36.90;14.15;;;7.10;99.90;;;;;;4954901;28;20035;-68
2022/11/06 05:51:00;;;;;;;37.50;14.63;;;7.10;99.90;;;;;;4965034;28;20030;-69
2022/11/06 05:53:25;;;;;;;;;;;7.00;99.90;;;;;;4957090;28;20030;-69
2022/11/06 05:55:51;;;;;;;34.88;13.75;;;7.00;99.90;;;;;;4974061;28;19914;-69
2022/11/06 05:58:16;;;;;;;37.28;15.05;;;7.10;99.90;;;;;;4953436;28;20042;-69
2022/11/06 06:00:42;;;;;;;42.55;16.92;;;6.90;99.90;;;;;;4966422;28;20050;-69
2022/11/06 06:03:09;;;;;;;38.03;15.23;;;6.90;99.90;;;;;;4953808;29;20030;-69
2022/11/06 06:05:34;;;;;;;35.33;14.13;;;6.90;99.90;;;;;;4951430;28;20077;-69
2022/11/06 06:08:00;;;;;;;33.78;14.05;;;6.90;99.90;;;;;;4956643;28;20023;-69
2022/11/06 06:10:25;;;;;;;41.53;15.18;;;6.90;99.90;;;;;;4973760;28;20501;-69
2022/11/06 06:12:51;;;;;;;36.28;15.07;;;6.90;99.90;;;;;;4956709;28;20034;-69
2022/11/06 06:15:17;;;;;;;40.30;14.50;;;6.70;99.90;;;;;;4973945;28;20030;-69
2022/11/06 06:17:44;;;;;;;37.70;15.73;;;6.70;99.90;;;;;;4953057;28;20062;-68
2022/11/06 06:20:10;;;;;;;37.78;15.23;;;6.70;99.90;;;;;;4970671;28;20061;-68
2022/11/06 06:22:35;;;;;;;32.17;14.02;;;6.80;99.90;;;;;;4957566;28;20035;-68
2022/11/06 06:25:01;;;;;;;32.90;14.15;;;6.90;99.90;;;;;;4948201;28;20126;-69
2022/11/06 06:27:26;;;;;;;34.05;14.70;;;7.10;99.90;;;;;;4950500;28;20073;-69
2022/11/06 06:29:52;;;;;;;42.95;16.30;;;6.80;99.90;;;;;;4973549;28;20031;-68
2022/11/06 06:32:18;;;;;;;37.53;15.55;;;6.70;99.90;;;;;;4974179;28;20019;-68
2022/11/06 06:34:43;;;;;;;44.90;16.90;;;6.70;99.90;;;;;;4951632;29;20030;-68
2022/11/06 06:37:09;;;;;;;46.92;17.20;;;6.60;99.90;;;;;;4946877;29;20086;-68
2022/11/06 06:39:35;;;;;;;35.40;12.93;;;6.80;99.90;;;;;;4955039;28;20022;-68
2022/11/06 06:42:00;;;;;;;37.40;14.38;;;7.00;99.90;;;;;;4959287;28;20032;-68
2022/11/06 06:44:26;;;;;;;32.90;13.32;;;6.90;99.90;;;;;;4959310;28;20027;-68
2022/11/06 06:46:52;;;;;;;37.75;14.98;;;6.90;99.90;;;;;;4959967;28;20082;-68
2022/11/06 06:49:17;;;;;;;37.13;14.43;;;6.70;99.90;;;;;;4959760;28;20023;-68
2022/11/06 06:51:43;;;;;;;39.17;14.38;;;6.80;99.90;;;;;;4958972;28;20023;-69
2022/11/06 06:54:08;;;;;;;43.13;16.23;;;6.90;99.90;;;;;;4943172;28;20031;-69
2022/11/06 06:56:34;;;;;;;34.28;13.63;;;7.00;99.90;;;;;;4959561;28;20019;-69
2022/11/06 06:58:59;;;;;;;33.70;14.55;;;7.00;99.90;;;;;;4976172;28;20118;-69
2022/11/06 07:01:25;;;;;;;37.00;14.32;;;7.20;99.90;;;;;;4968234;28;20070;-69
2022/11/06 07:03:50;;;;;;;39.63;14.65;;;7.00;99.90;;;;;;4959158;28;20027;-69
2022/11/06 07:06:19;;;;;;;37.72;14.68;;;7.00;99.90;;;;;;4959545;28;20027;-69
2022/11/06 07:08:45;;;;;;;35.17;14.18;;;6.90;99.90;;;;;;4958592;28;20031;-69
2022/11/06 07:11:10;;;;;;;38.80;14.70;;;6.70;99.90;;;;;;4953935;29;20446;-69
2022/11/06 07:13:36;;;;;;;31.60;12.80;;;6.90;99.90;;;;;;4958098;29;20050;-69
2022/11/06 07:16:03;;;;;;;35.78;14.20;;;7.00;99.90;;;;;;4965776;28;20024;-69
2022/11/06 07:18:29;;;;;;;33.70;14.13;;;7.20;99.90;;;;;;4954842;28;20494;-69
2022/11/06 07:20:54;;;;;;;32.33;12.77;;;6.90;99.90;;;;;;4955638;29;20047;-69
2022/11/06 07:23:20;;;;;;;29.13;12.85;;;7.10;99.90;;;;;;4953688;28;20030;-66
2022/11/06 07:25:51;;;;;;;29.55;12.40;;;7.20;99.90;;;;;;4943165;28;20082;-66
2022/11/06 07:28:17;;;;;;;35.90;14.57;;;7.40;99.90;;;;;;4976172;28;20023;-66
2022/11/06 07:30:42;;;;;;;31.05;12.45;;;7.50;99.90;;;;;;4956362;28;20089;-66
2022/11/06 07:33:08;;;;;;;35.47;14.82;;;7.30;99.90;;;;;;4955992;28;20391;-66
2022/11/06 07:35:34;;;;;;;31.27;14.27;;;7.40;99.90;;;;;;4945139;29;20034;-68
2022/11/06 07:38:16;;;;;;;37.78;14.35;;;7.20;99.90;;;;;;4956303;28;22062;-68
2022/11/06 07:40:41;;;;;;;32.25;14.02;;;7.30;99.90;;;;;;4976021;28;20090;-68
2022/11/06 07:43:09;;;;;;;34.00;13.32;;;7.30;99.90;;;;;;4976168;28;20035;-69
2022/11/06 07:45:35;;;;;;;28.30;12.85;;;7.40;99.90;;;;;;4954389;28;20027;-69
2022/11/06 07:48:01;;;;;;;30.55;12.38;;;7.60;99.90;;;;;;4950895;28;20113;-69
2022/11/06 07:50:26;;;;;;;27.83;12.32;;;7.60;99.90;;;;;;4956883;28;20110;-66
2022/11/06 07:52:52;;;;;;;29.98;12.82;;;7.50;99.90;;;;;;4948304;28;20022;-66
2022/11/06 07:55:18;;;;;;;27.52;13.23;;;7.60;99.90;;;;;;4955297;29;20090;-66
2022/11/06 07:57:44;;;;;;;27.15;12.70;;;7.40;99.90;;;;;;4948667;28;20027;-66
2022/11/06 08:00:10;;;;;;;33.05;13.80;;;7.30;99.90;;;;;;4946823;29;20487;-66
2022/11/06 08:02:36;;;;;;;31.00;13.30;;;7.10;99.90;;;;;;4970484;28;20077;-66
2022/11/06 08:05:02;;;;;;;27.90;12.77;;;7.30;99.90;;;;;;4941484;28;20031;-66
2022/11/06 08:07:27;;;;;;;26.13;12.27;;;7.50;99.90;;;;;;4959005;28;20033;-66
2022/11/06 08:09:53;;;;;;;31.02;12.70;;;7.60;99.90;;;;;;4956955;28;20051;-66
2022/11/06 08:12:18;;;;;;;31.85;13.18;;;7.60;99.90;;;;;;4957337;28;20042;-66
2022/11/06 08:14:44;;;;;;;28.77;11.82;;;7.50;99.90;;;;;;4959578;28;20077;-66
2022/11/06 08:17:09;;;;;;;28.20;12.43;;;7.50;99.90;;;;;;4977823;28;20031;-66
2022/11/06 08:19:35;;;;;;;30.15;13.15;;;7.60;99.90;;;;;;4959809;28;20166;-66
2022/11/06 08:22:00;;;;;;;35.45;13.15;;;7.70;99.90;;;;;;4954908;28;20399;-66
2022/11/06 08:24:26;;;;;;;32.38;12.77;;;7.70;99.90;;;;;;4956351;28;20019;-66
2022/11/06 08:26:51;;;;;;;28.75;12.90;;;7.70;99.90;;;;;;4954563;29;20050;-66
2022/11/06 08:29:17;;;;;;;33.50;12.75;;;7.80;99.90;;;;;;4952875;28;20030;-66
2022/11/06 08:31:42;;;;;;;27.98;12.48;;;7.90;99.90;;;;;;4953207;28;20027;-66
2022/11/06 08:34:08;;;;;;;28.38;12.00;;;7.90;99.90;;;;;;4939775;29;20526;-66
2022/11/06 08:36:44;;;;;;;28.75;11.95;;;8.00;99.90;;;;;;4961472;28;20019;-66
2022/11/06 08:39:11;;;;;;;26.08;10.93;;;8.30;99.90;;;;;;4957716;28;20026;-66
2022/11/06 08:41:40;;;;;;;23.15;11.23;;;8.20;99.90;;;;;;4942173;28;20122;-66
2022/11/06 08:44:05;;;;;;;30.70;12.27;;;8.30;99.90;;;;;;4940369;29;20023;-66
2022/11/06 08:46:31;;;;;;;28.13;12.23;;;8.30;99.90;;;;;;4950161;28;20034;-66
2022/11/06 08:48:57;;;;;;;24.83;11.75;;;8.40;99.90;;;;;;4948255;28;20026;-66
2022/11/06 08:51:22;;;;;;;23.27;11.98;;;8.40;99.90;;;;;;4957776;28;20031;-66
2022/11/06 08:53:48;;;;;;;24.23;11.57;;;8.50;99.90;;;;;;4957742;28;20022;-66
2022/11/06 08:56:13;;;;;;;20.15;10.40;;;8.60;99.90;;;;;;4974675;28;20046;-66
2022/11/06 08:58:39;;;;;;;23.30;10.82;;;8.70;99.90;;;;;;4957395;28;20016;-66
2022/11/06 09:01:05;;;;;;;27.92;12.93;;;8.60;99.90;;;;;;4957141;28;20113;-66
2022/11/06 09:03:30;;;;;;;28.17;12.25;;;8.30;99.90;;;;;;4957540;28;20482;-66
2022/11/06 09:05:56;;;;;;;31.38;12.25;;;8.10;99.90;;;;;;4975132;28;20027;-66
2022/11/06 09:08:23;;;;;;;27.48;12.13;;;8.10;99.90;;;;;;4957472;28;20065;-66
2022/11/06 09:10:48;;;;;;;25.70;11.75;;;8.20;99.90;;;;;;4974637;28;20019;-68
2022/11/06 09:13:14;;;;;;;27.15;13.25;;;8.30;99.90;;;;;;4974814;28;20022;-69
2022/11/06 09:15:40;;;;;;;31.08;12.25;;;8.30;99.90;;;;;;4957345;28;20037;-69
2022/11/06 09:18:05;;;;;;;26.83;13.05;;;7.90;99.90;;;;;;4956731;28;20070;-69
2022/11/06 09:24:42;;;;;;;31.35;12.82;;;8.10;99.90;;;;;;4974621;28;20061;-69
2022/11/06 09:27:07;;;;;;;29.02;11.82;;;7.90;99.90;;;;;;4974250;28;20042;-69
2022/11/06 09:29:33;;;;;;;30.25;12.40;;;7.80;99.90;;;;;;4974194;28;20034;-69
2022/11/06 09:31:58;;;;;;;33.83;12.75;;;8.00;99.90;;;;;;4956784;28;20494;-69
2022/11/06 09:34:24;;;;;;;30.63;12.70;;;8.10;99.90;;;;;;4958071;28;20034;-69
2022/11/06 09:36:49;;;;;;;31.73;12.95;;;8.40;99.90;;;;;;4974303;28;20050;-69
2022/11/06 09:39:15;;;;;;;24.23;11.05;;;8.30;99.90;;;;;;4954735;28;20058;-69
2022/11/06 09:42:03;;;;;;;23.10;10.90;;;8.60;99.90;;;;;;4955150;29;20059;-69
2022/11/06 09:44:38;;;;;;;25.27;11.52;;;8.70;99.90;;;;;;4955759;29;20027;-69
2022/11/06 09:47:12;;;;;;;26.75;10.63;;;8.80;99.90;;;;;;4968165;28;20023;-69
2022/11/06 09:49:50;;;;;;;31.10;10.10;;;8.90;99.90;;;;;;4956345;28;20027;-69
2022/11/06 09:52:32;;;;;;;25.45;10.20;;;9.00;99.90;;;;;;4973869;28;20106;-69
2022/11/06 09:55:12;;;;;;;24.25;11.02;;;9.20;99.90;;;;;;4956981;28;20062;-69
2022/11/06 09:57:53;;;;;;;20.42;9.77;;;9.30;99.90;;;;;;4954462;28;20023;-69
2022/11/06 10:00:19;;;;;;;21.75;10.20;;;9.40;99.90;;;;;;4938033;29;20510;-69
2022/11/06 10:02:51;;;;;;;24.08;10.02;;;9.70;99.90;;;;;;4955016;29;20058;-69
2022/11/06 10:05:27;;;;;;;18.23;8.98;;;9.80;99.90;;;;;;4937868;29;20034;-69
2022/11/06 10:07:58;;;;;;;18.38;9.23;;;10.00;99.90;;;;;;4965112;28;20039;-69
2022/11/06 10:10:30;;;;;;;16.83;9.43;;;9.90;99.90;;;;;;4942606;28;20042;-69
2022/11/06 10:13:01;;;;;;;17.27;8.40;;;9.90;99.90;;;;;;4943019;28;20031;-69
2022/11/06 10:15:33;;;;;;;20.33;8.45;;;10.20;99.90;;;;;;4960282;28;20026;-69
2022/11/06 10:18:14;;;;;;;16.85;8.02;;;10.50;99.90;;;;;;4960178;28;20039;-69
2022/11/06 10:20:53;;;;;;;;;;;10.60;99.90;;;;;;4961370;28;20058;-69
2022/11/06 10:23:32;;;;;;;19.02;8.15;;;10.80;99.90;;;;;;4951724;29;19977;-69
2022/11/06 10:26:13;;;;;;;20.17;8.23;;;10.50;99.90;;;;;;4941143;29;20027;-69
2022/11/06 10:29:03;;;;;;;17.98;7.55;;;10.40;99.90;;;;;;4944263;29;20027;-69
2022/11/06 10:31:47;;;;;;;14.45;7.15;;;10.50;99.90;;;;;;4976738;28;20039;-69
2022/11/06 10:34:24;;;;;;;15.27;7.90;;;10.80;99.90;;;;;;4977709;28;20067;-69
2022/11/06 10:37:03;;;;;;;14.80;7.13;;;11.30;99.90;;;;;;4977665;28;20015;-69
2022/11/06 10:39:32;;;;;;;13.10;6.53;;;11.50;99.90;;;;;;4978357;28;20038;-69
2022/11/06 10:42:22;;;;;;;16.25;7.68;;;11.40;99.90;;;;;;4978110;28;20027;-69
2022/11/06 10:44:50;;;;;;;14.82;6.93;;;11.60;99.90;;;;;;4961075;28;20054;-69
2022/11/06 10:47:23;;;;;;;15.68;8.18;;;11.80;99.90;;;;;;4961642;28;20030;-69
2022/11/06 10:49:57;;;;;;;20.35;6.50;;;11.50;99.90;;;;;;4979554;28;20031;-69
2022/11/06 10:52:44;;;;;;;20.63;8.52;;;11.20;99.90;;;;;;4963474;28;20027;-69
2022/11/06 10:55:29;;;;;;;16.00;6.85;;;11.20;99.90;;;;;;4962407;28;20034;-69
2022/11/06 10:57:57;;;;;;;12.23;6.13;;;11.40;99.90;;;;;;4962129;28;20019;-69
2022/11/06 11:00:23;;;;;;;13.85;5.88;;;11.70;99.90;;;;;;4960071;28;20031;-69
2022/11/06 11:02:52;;;;;;;14.88;6.93;;;12.00;99.90;;;;;;4959858;28;20482;-69
2022/11/06 11:05:20;;;;;;;16.02;5.85;;;12.30;99.90;;;;;;4977366;28;20034;-69
2022/11/06 11:07:48;;;;;;;14.57;6.35;;;12.50;99.90;;;;;;4976917;28;20035;-69
2022/11/06 11:10:22;;;;;;;8.68;5.53;;;12.40;99.90;;;;;;4977007;28;20479;-69
2022/11/06 11:12:50;;;;;;;14.45;6.18;;;12.70;99.90;;;;;;4960196;28;20383;-69
2022/11/06 11:15:21;;;;;;;11.32;5.75;;;12.80;99.90;;;;;;4977238;28;20081;-69
2022/11/06 11:18:11;;;;;;;13.95;5.70;;;12.50;99.90;;;;;;4959789;28;20109;-69
2022/11/06 11:20:42;;;;;;;12.70;5.82;;;12.90;99.90;;;;;;4995456;23;20133;-68
2022/11/06 11:23:16;;;;;;;11.18;5.03;;;12.90;99.90;;;;;;4978580;28;20473;-68
2022/11/06 11:25:44;;;;;;;13.82;5.53;;;12.90;99.90;;;;;;4978406;28;20027;-68
2022/11/06 11:28:24;;;;;;;12.88;5.35;;;12.80;99.90;;;;;;4979602;28;20029;-68
2022/11/06 11:30:52;;;;;;;8.70;4.90;;;12.70;99.90;;;;;;4978412;28;20037;-68
2022/11/06 11:33:21;;;;;;;10.68;4.57;;;12.60;99.90;;;;;;4978507;28;20026;-68
2022/11/06 11:35:48;;;;;;;7.00;4.10;;;12.60;99.90;;;;;;4995951;28;20084;-68
2022/11/06 11:38:15;;;;;;;9.57;4.32;;;12.80;99.90;;;;;;4978380;28;20038;-70
2022/11/06 11:40:42;;;;;;;7.05;3.38;;;12.60;99.90;;;;;;4978738;28;20023;-70
2022/11/06 11:43:27;;;;;;;6.95;3.05;;;13.10;99.90;;;;;;4978428;28;20030;-71
2022/11/06 11:46:08;;;;;;;6.05;3.95;;;13.50;99.90;;;;;;4979163;28;20096;-68
2022/11/06 11:48:51;;;;;;;12.70;3.83;;;13.70;99.90;;;;;;4979224;28;20026;-68
2022/11/06 11:51:43;;;;;;;9.48;3.75;;;13.70;99.90;;;;;;4978248;28;20034;-68
2022/11/06 11:54:12;;;;;;;;;;;13.40;99.90;;;;;;4978706;28;20485;-68
2022/11/06 11:56:53;;;;;;;7.10;3.67;;;13.30;99.90;;;;;;4995662;28;19906;-68
2022/11/06 11:59:29;;;;;;;7.00;3.30;;;13.50;99.90;;;;;;4978128;28;20025;-68
2022/11/06 12:02:01;;;;;;;9.13;3.85;;;13.70;99.90;;;;;;4995554;28;20038;-69
2022/11/06 12:04:34;;;;;;;5.03;2.92;;;13.90;99.90;;;;;;4978916;28;20030;-69
2022/11/06 12:07:03;;;;;;;5.00;3.00;;;14.10;99.90;;;;;;4978017;28;20369;-69
2022/11/06 12:09:32;;;;;;;4.90;2.72;;;14.10;99.90;;;;;;4978580;28;20023;-68
2022/11/06 12:11:59;;;;;;;6.30;2.60;;;14.30;99.90;;;;;;4978397;28;20018;-68
2022/11/06 12:14:28;;;;;;;4.47;2.80;;;14.30;99.90;;;;;;4995292;28;20078;-68
2022/11/06 12:17:13;;;;;;;8.13;3.05;;;14.20;99.90;;;;;;4978871;28;20050;-68
2022/11/06 12:19:43;;;;;;;5.93;3.15;;;13.90;99.90;;;;;;4978419;28;20132;-69
2022/11/06 12:22:18;;;;;;;9.27;3.53;;;13.80;99.90;;;;;;4995437;28;20109;-69
2022/11/06 12:25:09;;;;;;;6.65;2.63;;;13.80;99.90;;;;;;4995704;28;20030;-69
2022/11/06 12:27:42;;;;;;;5.03;2.40;;;13.70;99.90;;;;;;4972154;28;20030;-68
2022/11/06 12:30:14;;;;;;;7.35;3.03;;;13.30;99.90;;;;;;4994839;28;20069;-68
2022/11/06 12:33:15;;;;;;;7.68;3.33;;;13.10;99.90;;;;;;4976899;28;20019;-68
2022/11/06 12:35:46;;;;;;;4.75;2.75;;;12.80;99.90;;;;;;4978241;28;20034;-68
2022/11/06 12:38:52;;;;;;;6.77;2.87;;;13.40;99.90;;;;;;4995838;28;20057;-68
2022/11/06 12:41:26;;;;;;;5.53;3.20;;;13.90;99.90;;;;;;4977327;28;20353;-68
2022/11/06 12:43:52;;;;;;;3.78;2.30;;;13.70;99.90;;;;;;4977364;28;20026;-68
2022/11/06 12:46:20;;;;;;;3.72;2.60;;;13.90;99.90;;;;;;4977018;28;20032;-68
2022/11/06 12:49:16;;;;;;;4.07;2.55;;;13.90;99.90;;;;;;4994985;28;20022;-68
2022/11/06 12:51:47;;;;;;;6.10;2.80;;;13.80;99.90;;;;;;4977087;28;20113;-68
2022/11/06 12:54:52;;;;;;;4.15;2.35;;;13.90;99.90;;;;;;4978020;28;20606;-68
2022/11/06 12:57:33;;;;;;;8.25;2.42;;;14.20;99.90;;;;;;4977056;28;20058;-68
2022/11/06 13:00:16;;;;;;;3.33;2.15;;;14.50;99.90;;;;;;4976982;28;20026;-68
2022/11/06 13:03:06;;;;;;;5.47;2.55;;;14.70;99.90;;;;;;4977182;28;20440;-68
2022/11/06 13:05:36;;;;;;;5.63;3.30;;;14.60;99.90;;;;;;4994691;28;20105;-68
2022/11/06 13:08:20;;;;;;;3.53;2.63;;;14.40;99.90;;;;;;4994290;28;20508;-68
2022/11/06 13:10:56;;;;;;;6.95;2.60;;;14.60;99.90;;;;;;4976738;28;20030;-68
2022/11/06 13:13:43;;;;;;;5.28;2.63;;;15.00;99.90;;;;;;4976894;28;20022;-68
2022/11/06 13:16:12;;;;;;;3.72;2.33;;;15.50;99.90;;;;;;4994284;28;20022;-68
2022/11/06 13:18:44;;;;;;;6.57;3.00;;;15.60;99.90;;;;;;4976945;28;20493;-68